sensor_id;sensor_type;location;lat;lon;timestamp;temperature;humidity
34646;DHT22;20857;47.808;12.482;2022-07-24T00:01:32;19.60;99.90
34646;DHT22;20857;47.808;12.482;2022-07-24T00:03:58;19.50;99.90
34646;DHT22;20857;47.808;12.482;2022-07-24T00:06:24;19.50;99.90
34646;DHT22;20857;47.808;12.482;2022-07-24T00:08:50;19.50;99.90
34646;DHT22;20857;47.808;12.482;2022-07-24T00:11:17;19.40;99.90
34646;DHT22;20857;47.808;12.482;2022-07-24T00:13:43;19.40;99.90
34646;DHT22;20857;47.808;12.482;2022-07-24T00:16:09;19.40;99.90
34646;DHT22;20857;47.808;12.482;2022-07-24T00:18:34;19.40;99.90
34646;DHT22;20857;47.808;12.482;2022-07-24T00:21:00;19.40;99.90
34646;DHT22;20857;47.808;12.482;2022-07-24T00:23:26;19.40;99.90
34646;DHT22;20857;47.808;12.482;2022-07-24T00:25:53;19.40;99.90
34646;DHT22;20857;47.808;12.482;2022-07-24T00:28:19;19.50;99.90
34646;DHT22;20857;47.808;12.482;2022-07-24T00:30:45;19.50;99.90
34646;DHT22;20857;47.808;12.482;2022-07-24T00:33:10;19.50;99.90
34646;DHT22;20857;47.808;12.482;2022-07-24T00:35:36;19.50;99.90
34646;DHT22;20857;47.808;12.482;2022-07-24T00:38:03;19.50;99.90
34646;DHT22;20857;47.808;12.482;2022-07-24T00:40:29;19.50;99.90
34646;DHT22;20857;47.808;12.482;2022-07-24T00:42:56;19.40;99.90
34646;DHT22;20857;47.808;12.482;2022-07-24T00:45:22;19.40;99.90
34646;DHT22;20857;47.808;12.482;2022-07-24T00:47:48;19.40;99.90
34646;DHT22;20857;47.808;12.482;2022-07-24T00:50:13;19.40;99.90
34646;DHT22;20857;47.808;12.482;2022-07-24T00:52:39;19.40;99.90
34646;DHT22;20857;47.808;12.482;2022-07-24T00:55:05;19.30;99.90
34646;DHT22;20857;47.808;12.482;2022-07-24T00:57:31;19.30;99.90
34646;DHT22;20857;47.808;12.482;2022-07-24T00:59:57;19.20;99.90
34646;DHT22;20857;47.808;12.482;2022-07-24T01:02:23;19.20;99.90
34646;DHT22;20857;47.808;12.482;2022-07-24T01:04:50;19.20;99.90
34646;DHT22;20857;47.808;12.482;2022-07-24T01:07:16;19.20;99.90
34646;DHT22;20857;47.808;12.482;2022-07-24T01:09:43;19.20;99.90
34646;DHT22;20857;47.808;12.482;2022-07-24T01:12:09;19.20;99.90
34646;DHT22;20857;47.808;12.482;2022-07-24T01:14:35;19.30;99.90
34646;DHT22;20857;47.808;12.482;2022-07-24T01:17:01;19.30;99.90
34646;DHT22;20857;47.808;12.482;2022-07-24T01:19:27;19.40;99.90
34646;DHT22;20857;47.808;12.482;2022-07-24T01:21:53;19.40;99.90
34646;DHT22;20857;47.808;12.482;2022-07-24T01:24:20;19.40;99.90
34646;DHT22;20857;47.808;12.482;2022-07-24T01:26:46;19.40;99.90
34646;DHT22;20857;47.808;12.482;2022-07-24T01:29:13;19.50;99.90
34646;DHT22;20857;47.808;12.482;2022-07-24T01:31:39;19.50;99.90
34646;DHT22;20857;47.808;12.482;2022-07-24T01:34:05;19.60;99.90
34646;DHT22;20857;47.808;12.482;2022-07-24T01:36:31;19.60;99.90
34646;DHT22;20857;47.808;12.482;2022-07-24T01:38:57;19.60;99.90
34646;DHT22;20857;47.808;12.482;2022-07-24T01:41:22;19.60;99.90
34646;DHT22;20857;47.808;12.482;2022-07-24T01:43:48;19.60;99.90
34646;DHT22;20857;47.808;12.482;2022-07-24T01:46:14;19.60;99.90
34646;DHT22;20857;47.808;12.482;2022-07-24T01:48:41;19.60;99.90
34646;DHT22;20857;47.808;12.482;2022-07-24T01:51:08;19.60;99.90
34646;DHT22;20857;47.808;12.482;2022-07-24T01:56:36;19.60;99.90
34646;DHT22;20857;47.808;12.482;2022-07-24T01:59:01;19.60;99.90
34646;DHT22;20857;47.808;12.482;2022-07-24T02:01:27;19.60;99.90
34646;DHT22;20857;47.808;12.482;2022-07-24T02:03:54;19.60;99.90
34646;DHT22;20857;47.808;12.482;2022-07-24T02:06:20;19.60;99.90
34646;DHT22;20857;47.808;12.482;2022-07-24T02:08:45;19.70;99.90
34646;DHT22;20857;47.808;12.482;2022-07-24T02:11:11;19.70;99.90
34646;DHT22;20857;47.808;12.482;2022-07-24T02:13:37;19.70;99.90
34646;DHT22;20857;47.808;12.482;2022-07-24T02:16:03;19.70;99.90
34646;DHT22;20857;47.808;12.482;2022-07-24T02:18:28;19.70;99.90
34646;DHT22;20857;47.808;12.482;2022-07-24T02:20:54;19.70;99.90
34646;DHT22;20857;47.808;12.482;2022-07-24T02:23:20;19.70;99.90
34646;DHT22;20857;47.808;12.482;2022-07-24T02:25:47;19.70;99.90
34646;DHT22;20857;47.808;12.482;2022-07-24T02:28:13;19.60;99.90
34646;DHT22;20857;47.808;12.482;2022-07-24T02:30:39;19.60;99.90
34646;DHT22;20857;47.808;12.482;2022-07-24T02:33:05;19.70;99.90
34646;DHT22;20857;47.808;12.482;2022-07-24T02:35:30;19.60;99.90
34646;DHT22;20857;47.808;12.482;2022-07-24T02:37:56;19.60;99.90
34646;DHT22;20857;47.808;12.482;2022-07-24T02:40:21;19.60;99.90
34646;DHT22;20857;47.808;12.482;2022-07-24T02:42:47;19.70;99.90
34646;DHT22;20857;47.808;12.482;2022-07-24T02:45:13;19.60;99.90
34646;DHT22;20857;47.808;12.482;2022-07-24T02:47:50;19.60;99.90
34646;DHT22;20857;47.808;12.482;2022-07-24T02:50:16;19.60;99.90
34646;DHT22;20857;47.808;12.482;2022-07-24T02:52:42;19.50;99.90
34646;DHT22;20857;47.808;12.482;2022-07-24T02:55:08;19.40;99.90
34646;DHT22;20857;47.808;12.482;2022-07-24T02:57:34;19.40;99.90
34646;DHT22;20857;47.808;12.482;2022-07-24T02:59:59;19.30;99.90
34646;DHT22;20857;47.808;12.482;2022-07-24T03:02:25;19.30;99.90
34646;DHT22;20857;47.808;12.482;2022-07-24T03:04:50;19.30;99.90
34646;DHT22;20857;47.808;12.482;2022-07-24T03:07:16;19.30;99.90
34646;DHT22;20857;47.808;12.482;2022-07-24T03:09:42;19.30;99.90
34646;DHT22;20857;47.808;12.482;2022-07-24T03:12:08;19.20;99.90
34646;DHT22;20857;47.808;12.482;2022-07-24T03:14:33;19.30;99.90
34646;DHT22;20857;47.808;12.482;2022-07-24T03:16:59;19.30;99.90
34646;DHT22;20857;47.808;12.482;2022-07-24T03:19:25;19.40;99.90
34646;DHT22;20857;47.808;12.482;2022-07-24T03:21:50;19.40;99.90
34646;DHT22;20857;47.808;12.482;2022-07-24T03:24:16;19.40;99.90
34646;DHT22;20857;47.808;12.482;2022-07-24T03:26:42;19.40;99.90
34646;DHT22;20857;47.808;12.482;2022-07-24T03:29:08;19.40;99.90
34646;DHT22;20857;47.808;12.482;2022-07-24T03:31:33;19.40;99.90
34646;DHT22;20857;47.808;12.482;2022-07-24T03:33:59;19.30;99.90
34646;DHT22;20857;47.808;12.482;2022-07-24T03:36:24;19.40;99.90
34646;DHT22;20857;47.808;12.482;2022-07-24T03:38:50;19.40;99.90
34646;DHT22;20857;47.808;12.482;2022-07-24T03:41:16;19.40;99.90
34646;DHT22;20857;47.808;12.482;2022-07-24T03:43:41;19.40;99.90
34646;DHT22;20857;47.808;12.482;2022-07-24T03:46:07;19.30;99.90
34646;DHT22;20857;47.808;12.482;2022-07-24T03:48:33;19.30;99.90
34646;DHT22;20857;47.808;12.482;2022-07-24T03:50:58;19.30;99.90
34646;DHT22;20857;47.808;12.482;2022-07-24T03:53:24;19.30;99.90
34646;DHT22;20857;47.808;12.482;2022-07-24T03:55:50;19.30;99.90
34646;DHT22;20857;47.808;12.482;2022-07-24T03:58:15;19.30;99.90
34646;DHT22;20857;47.808;12.482;2022-07-24T04:00:41;19.30;99.90
34646;DHT22;20857;47.808;12.482;2022-07-24T04:03:06;19.30;99.90
34646;DHT22;20857;47.808;12.482;2022-07-24T04:05:32;19.30;99.90
34646;DHT22;20857;47.808;12.482;2022-07-24T04:07:58;19.30;99.90
34646;DHT22;20857;47.808;12.482;2022-07-24T04:10:23;19.20;99.90
34646;DHT22;20857;47.808;12.482;2022-07-24T04:12:49;19.30;99.90
34646;DHT22;20857;47.808;12.482;2022-07-24T04:15:15;19.40;99.90
34646;DHT22;20857;47.808;12.482;2022-07-24T04:17:41;19.40;99.90
34646;DHT22;20857;47.808;12.482;2022-07-24T04:20:07;19.40;99.90
34646;DHT22;20857;47.808;12.482;2022-07-24T04:22:33;19.40;99.90
34646;DHT22;20857;47.808;12.482;2022-07-24T04:24:59;19.40;99.90
34646;DHT22;20857;47.808;12.482;2022-07-24T04:27:25;19.40;99.90
34646;DHT22;20857;47.808;12.482;2022-07-24T04:29:51;19.40;99.90
34646;DHT22;20857;47.808;12.482;2022-07-24T04:32:17;19.40;99.90
34646;DHT22;20857;47.808;12.482;2022-07-24T04:34:43;19.30;99.90
34646;DHT22;20857;47.808;12.482;2022-07-24T04:37:08;19.40;99.90
34646;DHT22;20857;47.808;12.482;2022-07-24T04:39:34;19.40;99.90
34646;DHT22;20857;47.808;12.482;2022-07-24T04:42:00;19.40;99.90
34646;DHT22;20857;47.808;12.482;2022-07-24T04:44:25;19.40;99.90
34646;DHT22;20857;47.808;12.482;2022-07-24T04:46:51;19.40;99.90
34646;DHT22;20857;47.808;12.482;2022-07-24T04:49:16;19.40;99.90
34646;DHT22;20857;47.808;12.482;2022-07-24T04:51:42;19.50;99.90
34646;DHT22;20857;47.808;12.482;2022-07-24T04:54:07;19.50;99.90
34646;DHT22;20857;47.808;12.482;2022-07-24T04:56:33;19.50;99.90
34646;DHT22;20857;47.808;12.482;2022-07-24T04:58:59;19.60;99.90
34646;DHT22;20857;47.808;12.482;2022-07-24T05:01:27;19.70;99.90
34646;DHT22;20857;47.808;12.482;2022-07-24T05:03:52;19.90;99.90
34646;DHT22;20857;47.808;12.482;2022-07-24T05:06:19;20.00;99.90
34646;DHT22;20857;47.808;12.482;2022-07-24T05:08:44;20.10;99.90
34646;DHT22;20857;47.808;12.482;2022-07-24T05:11:10;20.20;99.90
34646;DHT22;20857;47.808;12.482;2022-07-24T05:13:35;20.30;99.90
34646;DHT22;20857;47.808;12.482;2022-07-24T05:16:01;20.30;99.90
34646;DHT22;20857;47.808;12.482;2022-07-24T05:18:27;20.40;99.90
34646;DHT22;20857;47.808;12.482;2022-07-24T05:20:52;20.50;99.90
34646;DHT22;20857;47.808;12.482;2022-07-24T05:23:18;20.60;99.90
34646;DHT22;20857;47.808;12.482;2022-07-24T05:25:43;20.60;99.90
34646;DHT22;20857;47.808;12.482;2022-07-24T05:28:09;20.70;99.90
34646;DHT22;20857;47.808;12.482;2022-07-24T05:30:35;20.90;99.90
34646;DHT22;20857;47.808;12.482;2022-07-24T05:33:00;21.00;99.90
34646;DHT22;20857;47.808;12.482;2022-07-24T05:35:26;21.20;99.90
34646;DHT22;20857;47.808;12.482;2022-07-24T05:37:51;21.40;99.90
34646;DHT22;20857;47.808;12.482;2022-07-24T05:40:17;21.40;99.90
34646;DHT22;20857;47.808;12.482;2022-07-24T05:42:43;21.50;99.90
34646;DHT22;20857;47.808;12.482;2022-07-24T05:45:08;21.60;99.90
34646;DHT22;20857;47.808;12.482;2022-07-24T05:47:48;21.50;99.90
34646;DHT22;20857;47.808;12.482;2022-07-24T05:50:14;21.40;99.90
34646;DHT22;20857;47.808;12.482;2022-07-24T05:52:41;21.40;99.90
34646;DHT22;20857;47.808;12.482;2022-07-24T05:55:07;21.40;99.90
34646;DHT22;20857;47.808;12.482;2022-07-24T05:57:33;21.40;99.90
34646;DHT22;20857;47.808;12.482;2022-07-24T05:59:59;21.50;99.90
34646;DHT22;20857;47.808;12.482;2022-07-24T06:02:25;21.60;99.90
34646;DHT22;20857;47.808;12.482;2022-07-24T06:04:51;21.70;99.90
34646;DHT22;20857;47.808;12.482;2022-07-24T06:07:17;21.80;99.90
34646;DHT22;20857;47.808;12.482;2022-07-24T06:09:42;21.80;99.90
34646;DHT22;20857;47.808;12.482;2022-07-24T06:12:08;21.80;99.90
34646;DHT22;20857;47.808;12.482;2022-07-24T06:14:34;21.90;99.90
34646;DHT22;20857;47.808;12.482;2022-07-24T06:17:00;22.00;99.90
34646;DHT22;20857;47.808;12.482;2022-07-24T06:19:26;22.20;99.90
34646;DHT22;20857;47.808;12.482;2022-07-24T06:21:51;22.30;99.90
34646;DHT22;20857;47.808;12.482;2022-07-24T06:24:17;22.30;99.90
34646;DHT22;20857;47.808;12.482;2022-07-24T06:26:43;22.40;99.90
34646;DHT22;20857;47.808;12.482;2022-07-24T06:29:09;22.30;99.90
34646;DHT22;20857;47.808;12.482;2022-07-24T06:31:35;22.30;99.90
34646;DHT22;20857;47.808;12.482;2022-07-24T06:34:01;22.30;99.90
34646;DHT22;20857;47.808;12.482;2022-07-24T06:36:26;22.40;99.90
34646;DHT22;20857;47.808;12.482;2022-07-24T06:38:52;22.60;99.90
34646;DHT22;20857;47.808;12.482;2022-07-24T06:41:18;22.60;99.90
34646;DHT22;20857;47.808;12.482;2022-07-24T06:43:44;22.70;99.90
34646;DHT22;20857;47.808;12.482;2022-07-24T06:46:10;22.80;99.90
34646;DHT22;20857;47.808;12.482;2022-07-24T06:48:35;22.90;99.90
34646;DHT22;20857;47.808;12.482;2022-07-24T06:51:02;23.10;99.90
34646;DHT22;20857;47.808;12.482;2022-07-24T06:53:28;23.10;99.90
34646;DHT22;20857;47.808;12.482;2022-07-24T06:55:54;23.10;99.90
34646;DHT22;20857;47.808;12.482;2022-07-24T06:58:21;23.20;99.90
34646;DHT22;20857;47.808;12.482;2022-07-24T07:00:47;23.30;99.90
34646;DHT22;20857;47.808;12.482;2022-07-24T07:03:14;23.30;99.90
34646;DHT22;20857;47.808;12.482;2022-07-24T07:05:40;23.40;99.90
34646;DHT22;20857;47.808;12.482;2022-07-24T07:08:06;23.20;99.90
34646;DHT22;20857;47.808;12.482;2022-07-24T07:10:32;23.10;99.90
34646;DHT22;20857;47.808;12.482;2022-07-24T07:12:58;22.90;99.90
34646;DHT22;20857;47.808;12.482;2022-07-24T07:15:25;22.80;99.90
34646;DHT22;20857;47.808;12.482;2022-07-24T07:17:52;22.80;99.90
34646;DHT22;20857;47.808;12.482;2022-07-24T07:20:17;22.80;99.90
34646;DHT22;20857;47.808;12.482;2022-07-24T07:22:43;22.90;99.90
34646;DHT22;20857;47.808;12.482;2022-07-24T07:25:10;22.80;99.90
34646;DHT22;20857;47.808;12.482;2022-07-24T07:27:36;22.90;99.90
34646;DHT22;20857;47.808;12.482;2022-07-24T07:30:05;23.10;99.90
34646;DHT22;20857;47.808;12.482;2022-07-24T07:32:31;23.30;99.90
34646;DHT22;20857;47.808;12.482;2022-07-24T07:34:57;23.50;99.90
34646;DHT22;20857;47.808;12.482;2022-07-24T07:37:22;23.70;99.90
34646;DHT22;20857;47.808;12.482;2022-07-24T07:39:51;23.80;99.90
34646;DHT22;20857;47.808;12.482;2022-07-24T07:42:17;23.80;99.90
34646;DHT22;20857;47.808;12.482;2022-07-24T07:44:43;23.70;99.90
34646;DHT22;20857;47.808;12.482;2022-07-24T07:47:08;23.70;99.90
34646;DHT22;20857;47.808;12.482;2022-07-24T07:49:34;23.80;99.90
34646;DHT22;20857;47.808;12.482;2022-07-24T07:51:59;23.80;99.90
34646;DHT22;20857;47.808;12.482;2022-07-24T07:54:25;23.90;99.90
34646;DHT22;20857;47.808;12.482;2022-07-24T07:56:51;24.10;99.90
34646;DHT22;20857;47.808;12.482;2022-07-24T07:59:16;24.10;99.90
34646;DHT22;20857;47.808;12.482;2022-07-24T08:01:42;24.20;99.90
34646;DHT22;20857;47.808;12.482;2022-07-24T08:04:07;24.20;99.90
34646;DHT22;20857;47.808;12.482;2022-07-24T08:06:33;24.20;99.90
34646;DHT22;20857;47.808;12.482;2022-07-24T08:08:59;24.20;99.90
34646;DHT22;20857;47.808;12.482;2022-07-24T08:11:24;24.30;99.90
34646;DHT22;20857;47.808;12.482;2022-07-24T08:13:50;24.30;99.90
34646;DHT22;20857;47.808;12.482;2022-07-24T08:16:16;24.20;99.90
34646;DHT22;20857;47.808;12.482;2022-07-24T08:18:41;24.20;99.90
34646;DHT22;20857;47.808;12.482;2022-07-24T08:21:07;24.30;99.90
34646;DHT22;20857;47.808;12.482;2022-07-24T08:23:32;24.30;99.90
34646;DHT22;20857;47.808;12.482;2022-07-24T08:25:58;24.40;99.90
34646;DHT22;20857;47.808;12.482;2022-07-24T08:28:24;24.40;99.90
34646;DHT22;20857;47.808;12.482;2022-07-24T08:30:50;24.50;99.90
34646;DHT22;20857;47.808;12.482;2022-07-24T08:33:16;24.60;99.90
34646;DHT22;20857;47.808;12.482;2022-07-24T08:35:41;24.70;99.90
34646;DHT22;20857;47.808;12.482;2022-07-24T08:38:07;24.90;99.90
34646;DHT22;20857;47.808;12.482;2022-07-24T08:40:35;25.00;99.90
34646;DHT22;20857;47.808;12.482;2022-07-24T08:43:02;24.90;99.90
34646;DHT22;20857;47.808;12.482;2022-07-24T08:45:28;24.70;99.90
34646;DHT22;20857;47.808;12.482;2022-07-24T08:47:55;24.80;99.90
34646;DHT22;20857;47.808;12.482;2022-07-24T08:50:22;25.00;99.90
34646;DHT22;20857;47.808;12.482;2022-07-24T08:52:48;25.20;99.90
34646;DHT22;20857;47.808;12.482;2022-07-24T08:55:13;25.30;99.90
34646;DHT22;20857;47.808;12.482;2022-07-24T08:57:40;25.40;99.90
34646;DHT22;20857;47.808;12.482;2022-07-24T09:00:06;25.20;99.90
34646;DHT22;20857;47.808;12.482;2022-07-24T09:02:31;25.10;99.90
34646;DHT22;20857;47.808;12.482;2022-07-24T09:05:00;25.00;99.90
34646;DHT22;20857;47.808;12.482;2022-07-24T09:07:28;25.10;99.90
34646;DHT22;20857;47.808;12.482;2022-07-24T09:12:25;25.10;99.90
34646;DHT22;20857;47.808;12.482;2022-07-24T09:14:51;25.20;99.90
34646;DHT22;20857;47.808;12.482;2022-07-24T09:17:18;25.40;99.90
34646;DHT22;20857;47.808;12.482;2022-07-24T09:19:59;25.40;99.90
34646;DHT22;20857;47.808;12.482;2022-07-24T09:25:14;25.80;99.90
34646;DHT22;20857;47.808;12.482;2022-07-24T09:27:46;26.00;99.90
34646;DHT22;20857;47.808;12.482;2022-07-24T09:33:05;26.00;99.90
34646;DHT22;20857;47.808;12.482;2022-07-24T09:35:39;26.10;99.90
34646;DHT22;20857;47.808;12.482;2022-07-24T09:38:10;26.10;99.90
34646;DHT22;20857;47.808;12.482;2022-07-24T09:40:38;25.90;99.90
34646;DHT22;20857;47.808;12.482;2022-07-24T09:43:26;25.80;99.90
34646;DHT22;20857;47.808;12.482;2022-07-24T09:46:02;25.90;99.90
34646;DHT22;20857;47.808;12.482;2022-07-24T09:51:04;26.10;99.90
34646;DHT22;20857;47.808;12.482;2022-07-24T09:53:32;26.20;99.90
34646;DHT22;20857;47.808;12.482;2022-07-24T09:56:04;26.30;99.90
34646;DHT22;20857;47.808;12.482;2022-07-24T09:58:32;26.40;99.90
34646;DHT22;20857;47.808;12.482;2022-07-24T10:00:59;26.60;99.90
34646;DHT22;20857;47.808;12.482;2022-07-24T10:03:30;26.80;99.90
34646;DHT22;20857;47.808;12.482;2022-07-24T10:05:59;26.70;99.90
34646;DHT22;20857;47.808;12.482;2022-07-24T10:08:26;26.80;99.90
34646;DHT22;20857;47.808;12.482;2022-07-24T10:10:52;26.80;99.90
34646;DHT22;20857;47.808;12.482;2022-07-24T10:13:18;26.90;99.90
34646;DHT22;20857;47.808;12.482;2022-07-24T10:18:56;27.00;99.90
34646;DHT22;20857;47.808;12.482;2022-07-24T10:21:28;26.90;99.90
34646;DHT22;20857;47.808;12.482;2022-07-24T10:26:41;26.90;99.90
34646;DHT22;20857;47.808;12.482;2022-07-24T10:29:20;27.00;99.90
34646;DHT22;20857;47.808;12.482;2022-07-24T10:31:52;27.20;99.90
34646;DHT22;20857;47.808;12.482;2022-07-24T10:36:59;27.10;99.90
34646;DHT22;20857;47.808;12.482;2022-07-24T10:39:37;27.00;99.90
34646;DHT22;20857;47.808;12.482;2022-07-24T10:42:06;27.20;99.90
34646;DHT22;20857;47.808;12.482;2022-07-24T10:44:32;27.50;99.90
34646;DHT22;20857;47.808;12.482;2022-07-24T10:47:06;27.70;99.90
34646;DHT22;20857;47.808;12.482;2022-07-24T10:49:42;27.90;99.90
34646;DHT22;20857;47.808;12.482;2022-07-24T10:52:25;28.10;99.90
34646;DHT22;20857;47.808;12.482;2022-07-24T10:58:03;28.50;99.90
34646;DHT22;20857;47.808;12.482;2022-07-24T11:00:35;28.90;99.90
34646;DHT22;20857;47.808;12.482;2022-07-24T11:03:05;29.00;99.90
34646;DHT22;20857;47.808;12.482;2022-07-24T11:05:37;28.90;99.90
34646;DHT22;20857;47.808;12.482;2022-07-24T11:10:53;28.60;99.90
34646;DHT22;20857;47.808;12.482;2022-07-24T11:21:27;28.10;99.90
34646;DHT22;20857;47.808;12.482;2022-07-24T11:24:16;28.00;99.90
34646;DHT22;20857;47.808;12.482;2022-07-24T11:26:53;28.20;99.90
34646;DHT22;20857;47.808;12.482;2022-07-24T11:29:27;28.50;99.90
34646;DHT22;20857;47.808;12.482;2022-07-24T11:32:02;28.20;99.90
34646;DHT22;20857;47.808;12.482;2022-07-24T11:34:29;27.90;99.90
34646;DHT22;20857;47.808;12.482;2022-07-24T11:36:55;28.10;99.90
34646;DHT22;20857;47.808;12.482;2022-07-24T11:41:57;28.10;99.90
34646;DHT22;20857;47.808;12.482;2022-07-24T11:44:25;28.30;99.90
34646;DHT22;20857;47.808;12.482;2022-07-24T11:46:52;28.40;99.90
34646;DHT22;20857;47.808;12.482;2022-07-24T11:49:17;28.60;99.90
34646;DHT22;20857;47.808;12.482;2022-07-24T11:51:44;28.70;99.90
34646;DHT22;20857;47.808;12.482;2022-07-24T11:54:19;28.50;99.90
34646;DHT22;20857;47.808;12.482;2022-07-24T11:56:45;28.80;99.90
34646;DHT22;20857;47.808;12.482;2022-07-24T11:59:32;29.00;99.90
34646;DHT22;20857;47.808;12.482;2022-07-24T12:02:08;28.40;99.90
34646;DHT22;20857;47.808;12.482;2022-07-24T12:04:37;28.20;99.90
34646;DHT22;20857;47.808;12.482;2022-07-24T12:07:07;28.40;99.90
34646;DHT22;20857;47.808;12.482;2022-07-24T12:09:32;29.00;99.90
34646;DHT22;20857;47.808;12.482;2022-07-24T12:11:58;29.40;99.90
34646;DHT22;20857;47.808;12.482;2022-07-24T12:14:23;29.80;99.90
34646;DHT22;20857;47.808;12.482;2022-07-24T12:16:54;30.10;99.90
34646;DHT22;20857;47.808;12.482;2022-07-24T12:19:23;30.10;99.90
34646;DHT22;20857;47.808;12.482;2022-07-24T12:21:52;30.30;99.90
34646;DHT22;20857;47.808;12.482;2022-07-24T12:24:19;30.40;99.90
34646;DHT22;20857;47.808;12.482;2022-07-24T12:26:52;30.30;98.20
34646;DHT22;20857;47.808;12.482;2022-07-24T12:29:19;30.40;99.30
34646;DHT22;20857;47.808;12.482;2022-07-24T12:31:46;31.00;98.20
34646;DHT22;20857;47.808;12.482;2022-07-24T12:34:12;31.10;98.10
34646;DHT22;20857;47.808;12.482;2022-07-24T12:36:38;32.20;96.60
34646;DHT22;20857;47.808;12.482;2022-07-24T12:39:05;32.70;97.30
34646;DHT22;20857;47.808;12.482;2022-07-24T12:41:40;33.10;96.50
34646;DHT22;20857;47.808;12.482;2022-07-24T12:44:06;33.10;95.60
34646;DHT22;20857;47.808;12.482;2022-07-24T12:46:35;33.70;94.30
34646;DHT22;20857;47.808;12.482;2022-07-24T12:49:13;34.00;93.60
34646;DHT22;20857;47.808;12.482;2022-07-24T12:51:59;33.60;93.20
34646;DHT22;20857;47.808;12.482;2022-07-24T12:54:36;33.50;93.30
34646;DHT22;20857;47.808;12.482;2022-07-24T12:57:10;33.90;92.20
34646;DHT22;20857;47.808;12.482;2022-07-24T12:59:39;33.80;92.20
34646;DHT22;20857;47.808;12.482;2022-07-24T13:02:07;34.30;90.90
34646;DHT22;20857;47.808;12.482;2022-07-24T13:04:40;34.50;90.10
34646;DHT22;20857;47.808;12.482;2022-07-24T13:07:07;34.60;91.10
34646;DHT22;20857;47.808;12.482;2022-07-24T13:09:34;34.90;91.30
34646;DHT22;20857;47.808;12.482;2022-07-24T13:11:59;34.70;90.40
34646;DHT22;20857;47.808;12.482;2022-07-24T13:14:25;35.20;88.90
34646;DHT22;20857;47.808;12.482;2022-07-24T13:16:54;35.30;90.20
34646;DHT22;20857;47.808;12.482;2022-07-24T13:19:20;35.40;87.50
34646;DHT22;20857;47.808;12.482;2022-07-24T13:21:47;36.00;88.40
34646;DHT22;20857;47.808;12.482;2022-07-24T13:24:14;36.50;88.70
34646;DHT22;20857;47.808;12.482;2022-07-24T13:26:42;37.30;85.60
34646;DHT22;20857;47.808;12.482;2022-07-24T13:29:08;37.40;85.20
34646;DHT22;20857;47.808;12.482;2022-07-24T13:31:34;37.30;85.20
34646;DHT22;20857;47.808;12.482;2022-07-24T13:34:00;37.40;84.50
34646;DHT22;20857;47.808;12.482;2022-07-24T13:36:25;37.20;83.50
34646;DHT22;20857;47.808;12.482;2022-07-24T13:38:51;36.70;79.50
34646;DHT22;20857;47.808;12.482;2022-07-24T13:41:17;36.40;76.90
34646;DHT22;20857;47.808;12.482;2022-07-24T13:43:44;36.50;75.70
34646;DHT22;20857;47.808;12.482;2022-07-24T13:46:10;36.80;73.80
34646;DHT22;20857;47.808;12.482;2022-07-24T13:48:36;36.00;74.30
34646;DHT22;20857;47.808;12.482;2022-07-24T13:51:02;36.30;75.90
34646;DHT22;20857;47.808;12.482;2022-07-24T13:53:27;37.00;77.60
34646;DHT22;20857;47.808;12.482;2022-07-24T13:55:53;37.30;81.00
34646;DHT22;20857;47.808;12.482;2022-07-24T13:58:19;38.00;77.90
34646;DHT22;20857;47.808;12.482;2022-07-24T14:00:44;38.30;78.50
34646;DHT22;20857;47.808;12.482;2022-07-24T14:03:10;38.60;77.20
34646;DHT22;20857;47.808;12.482;2022-07-24T14:05:36;39.10;76.70
34646;DHT22;20857;47.808;12.482;2022-07-24T14:08:01;39.20;76.50
34646;DHT22;20857;47.808;12.482;2022-07-24T14:10:27;39.30;75.40
34646;DHT22;20857;47.808;12.482;2022-07-24T14:12:53;39.30;73.40
34646;DHT22;20857;47.808;12.482;2022-07-24T14:15:18;39.30;72.30
34646;DHT22;20857;47.808;12.482;2022-07-24T14:17:44;39.40;74.80
34646;DHT22;20857;47.808;12.482;2022-07-24T14:20:11;39.50;75.40
34646;DHT22;20857;47.808;12.482;2022-07-24T14:22:38;39.70;72.90
34646;DHT22;20857;47.808;12.482;2022-07-24T14:25:04;39.10;73.80
34646;DHT22;20857;47.808;12.482;2022-07-24T14:27:31;38.20;68.80
34646;DHT22;20857;47.808;12.482;2022-07-24T14:29:56;37.90;69.70
34646;DHT22;20857;47.808;12.482;2022-07-24T14:32:22;38.10;70.90
34646;DHT22;20857;47.808;12.482;2022-07-24T14:34:48;36.40;72.10
34646;DHT22;20857;47.808;12.482;2022-07-24T14:37:13;36.70;73.40
34646;DHT22;20857;47.808;12.482;2022-07-24T14:39:39;36.60;76.40
34646;DHT22;20857;47.808;12.482;2022-07-24T14:42:05;36.60;76.90
34646;DHT22;20857;47.808;12.482;2022-07-24T14:44:31;36.90;78.50
34646;DHT22;20857;47.808;12.482;2022-07-24T14:46:56;37.60;74.20
34646;DHT22;20857;47.808;12.482;2022-07-24T14:49:24;37.80;72.00
34646;DHT22;20857;47.808;12.482;2022-07-24T14:51:49;37.80;73.90
34646;DHT22;20857;47.808;12.482;2022-07-24T14:54:15;37.60;73.70
34646;DHT22;20857;47.808;12.482;2022-07-24T14:56:41;38.30;75.00
34646;DHT22;20857;47.808;12.482;2022-07-24T14:59:07;38.00;78.00
34646;DHT22;20857;47.808;12.482;2022-07-24T15:01:33;38.10;76.00
34646;DHT22;20857;47.808;12.482;2022-07-24T15:03:59;37.60;74.60
34646;DHT22;20857;47.808;12.482;2022-07-24T15:06:27;37.30;75.20
34646;DHT22;20857;47.808;12.482;2022-07-24T15:08:53;37.40;75.10
34646;DHT22;20857;47.808;12.482;2022-07-24T15:11:19;37.70;76.50
34646;DHT22;20857;47.808;12.482;2022-07-24T15:13:47;38.00;78.10
34646;DHT22;20857;47.808;12.482;2022-07-24T15:16:13;38.40;75.50
34646;DHT22;20857;47.808;12.482;2022-07-24T15:18:39;38.80;74.90
34646;DHT22;20857;47.808;12.482;2022-07-24T15:21:05;39.20;74.30
34646;DHT22;20857;47.808;12.482;2022-07-24T15:23:31;39.30;74.80
34646;DHT22;20857;47.808;12.482;2022-07-24T15:25:57;39.10;75.00
34646;DHT22;20857;47.808;12.482;2022-07-24T15:28:22;39.10;74.60
34646;DHT22;20857;47.808;12.482;2022-07-24T15:30:48;39.10;73.00
34646;DHT22;20857;47.808;12.482;2022-07-24T15:33:13;38.30;72.90
34646;DHT22;20857;47.808;12.482;2022-07-24T15:35:39;38.30;74.40
34646;DHT22;20857;47.808;12.482;2022-07-24T15:38:05;38.50;74.80
34646;DHT22;20857;47.808;12.482;2022-07-24T15:40:30;38.40;73.70
34646;DHT22;20857;47.808;12.482;2022-07-24T15:42:57;38.30;75.20
34646;DHT22;20857;47.808;12.482;2022-07-24T15:45:23;37.70;73.30
34646;DHT22;20857;47.808;12.482;2022-07-24T15:47:50;37.10;73.20
34646;DHT22;20857;47.808;12.482;2022-07-24T15:50:17;37.20;74.60
34646;DHT22;20857;47.808;12.482;2022-07-24T15:52:43;37.60;73.70